createdAt,value
2022-12-11T00:00:15.100Z,985.73
2022-12-11T00:01:16.810Z,985.72
2022-12-11T00:02:18.594Z,985.72
2022-12-11T00:03:20.347Z,985.76
2022-12-11T00:04:22.050Z,985.79
2022-12-11T00:05:23.726Z,985.74
2022-12-11T00:06:25.464Z,985.75
2022-12-11T00:07:27.198Z,985.78
2022-12-11T00:08:28.930Z,985.79
2022-12-11T00:09:30.671Z,985.81
2022-12-11T00:10:36.221Z,985.74
2022-12-11T00:11:34.123Z,985.75
2022-12-11T00:12:35.871Z,985.78
2022-12-11T00:13:37.623Z,985.78
2022-12-11T00:14:39.394Z,985.79
2022-12-11T00:15:41.065Z,985.69
2022-12-11T00:16:42.871Z,985.84
2022-12-11T00:17:44.547Z,985.83
2022-12-11T00:18:46.284Z,985.84
2022-12-11T00:19:48.003Z,985.77
2022-12-11T00:20:49.711Z,985.81
2022-12-11T00:21:51.485Z,985.82
2022-12-11T00:22:53.192Z,985.84
2022-12-11T00:23:54.919Z,985.8
2022-12-11T00:24:56.662Z,985.76
2022-12-11T00:25:58.455Z,985.78
2022-12-11T00:27:00.132Z,985.81
2022-12-11T00:28:01.850Z,985.8
2022-12-11T00:29:03.582Z,985.78
2022-12-11T00:30:05.323Z,985.75
2022-12-11T00:31:07.052Z,985.72
2022-12-11T00:32:08.857Z,985.73
2022-12-11T00:33:10.562Z,985.77
2022-12-11T00:34:12.294Z,985.8
2022-12-11T00:35:14.093Z,985.81
2022-12-11T00:36:15.741Z,985.79
2022-12-11T00:37:17.619Z,985.83
2022-12-11T00:38:19.205Z,985.85
2022-12-11T00:39:20.913Z,985.79
2022-12-11T00:40:22.691Z,985.82
2022-12-11T00:41:24.425Z,985.6
2022-12-11T00:42:26.106Z,985.84
2022-12-11T00:43:27.858Z,985.79
2022-12-11T00:44:29.569Z,985.87
2022-12-11T00:45:31.343Z,985.78
2022-12-11T00:46:33.059Z,985.8
2022-12-11T00:47:34.788Z,985.82
2022-12-11T00:48:36.511Z,985.8
2022-12-11T00:49:38.233Z,985.81
2022-12-11T00:50:40.029Z,985.68
2022-12-11T00:51:41.748Z,985.8
2022-12-11T00:52:43.450Z,985.78
2022-12-11T00:53:45.179Z,985.76
2022-12-11T00:54:46.910Z,985.71
2022-12-11T00:55:48.640Z,985.74
2022-12-11T00:56:50.419Z,985.83
2022-12-11T00:57:52.161Z,985.8
2022-12-11T00:58:53.866Z,985.76
2022-12-11T00:59:55.615Z,985.86
2022-12-11T01:00:57.375Z,985.79
2022-12-11T01:01:59.088Z,985.75
2022-12-11T01:03:00.880Z,985.77
2022-12-11T01:04:02.503Z,985.79
2022-12-11T01:05:04.257Z,985.8
2022-12-11T01:06:06.020Z,985.71
2022-12-11T01:07:07.730Z,985.75
2022-12-11T01:08:09.519Z,985.8
2022-12-11T01:09:11.257Z,985.79
2022-12-11T01:10:12.926Z,985.8
2022-12-11T01:11:16.028Z,985.84
2022-12-11T01:12:16.417Z,985.79
2022-12-11T01:13:18.104Z,985.82
2022-12-11T01:14:19.876Z,985.86
2022-12-11T01:15:21.574Z,985.83
2022-12-11T01:16:23.332Z,985.83
2022-12-11T01:17:25.020Z,985.79
2022-12-11T01:18:26.776Z,985.83
2022-12-11T01:19:28.533Z,985.85
2022-12-11T01:20:30.266Z,985.86
2022-12-11T01:21:32.012Z,985.87
2022-12-11T01:22:33.734Z,985.82
2022-12-11T01:23:35.469Z,985.77
2022-12-11T01:24:37.160Z,985.88
2022-12-11T01:25:38.905Z,985.83
2022-12-11T01:26:40.677Z,985.82
2022-12-11T01:27:42.399Z,985.83
2022-12-11T01:28:44.109Z,985.84
2022-12-11T01:29:45.832Z,985.86
2022-12-11T01:30:47.670Z,985.84
2022-12-11T01:31:49.305Z,985.87
2022-12-11T01:32:51.078Z,985.82
2022-12-11T01:33:52.809Z,985.75
2022-12-11T01:34:54.509Z,985.81
2022-12-11T01:35:56.232Z,985.85
2022-12-11T01:36:57.986Z,985.8
2022-12-11T01:37:59.693Z,985.83
2022-12-11T01:39:01.473Z,985.75
2022-12-11T01:40:03.173Z,985.81
2022-12-11T01:41:04.899Z,985.8
2022-12-11T01:42:07.736Z,985.83
2022-12-11T01:43:08.367Z,985.82
2022-12-11T01:44:10.127Z,985.74
2022-12-11T01:45:12.098Z,985.74
2022-12-11T01:46:13.931Z,985.78
2022-12-11T01:47:15.298Z,985.74
2022-12-11T01:48:17.032Z,985.78
2022-12-11T01:49:18.765Z,985.74
2022-12-11T01:50:20.499Z,985.7
2022-12-11T01:51:22.216Z,985.76
2022-12-11T01:52:23.984Z,985.83
2022-12-11T01:53:25.715Z,985.87
2022-12-11T01:54:27.443Z,985.84
2022-12-11T01:55:29.159Z,985.87
2022-12-11T01:56:30.905Z,985.89
2022-12-11T01:57:32.708Z,985.87
2022-12-11T01:58:34.366Z,985.89
2022-12-11T01:59:36.093Z,985.96
2022-12-11T02:00:37.831Z,985.86
2022-12-11T02:01:39.616Z,985.8
2022-12-11T02:02:41.417Z,985.9
2022-12-11T02:03:43.033Z,985.93
2022-12-11T02:04:44.769Z,985.93
2022-12-11T02:05:46.565Z,985.92
2022-12-11T02:06:48.264Z,985.92
2022-12-11T02:07:50.072Z,985.93
2022-12-11T02:08:51.682Z,985.91
2022-12-11T02:09:53.435Z,985.88
2022-12-11T02:10:55.145Z,985.88
2022-12-11T02:11:56.880Z,985.92
2022-12-11T02:12:58.625Z,985.9
2022-12-11T02:14:00.425Z,985.75
2022-12-11T02:15:02.128Z,985.89
2022-12-11T02:16:03.915Z,985.86
2022-12-11T02:17:05.564Z,985.9
2022-12-11T02:18:07.306Z,985.91
2022-12-11T02:19:09.009Z,985.9
2022-12-11T02:20:10.806Z,985.95
2022-12-11T02:21:12.498Z,985.94
2022-12-11T02:22:14.224Z,985.92
2022-12-11T02:23:15.954Z,985.89
2022-12-11T02:24:17.691Z,986
2022-12-11T02:25:19.463Z,985.92
2022-12-11T02:26:21.167Z,985.92
2022-12-11T02:27:22.933Z,985.96
2022-12-11T02:28:24.752Z,985.96
2022-12-11T02:29:26.358Z,985.98
2022-12-11T02:30:28.143Z,985.98
2022-12-11T02:31:30.069Z,985.98
2022-12-11T02:32:31.548Z,986.01
2022-12-11T02:33:33.298Z,986.01
2022-12-11T02:34:35.072Z,985.93
2022-12-11T02:35:36.753Z,986.01
2022-12-11T02:36:38.523Z,985.97
2022-12-11T02:37:40.273Z,986.04
2022-12-11T02:38:41.984Z,985.95
2022-12-11T02:39:43.701Z,985.98
2022-12-11T02:40:45.420Z,985.95
2022-12-11T02:41:47.166Z,985.9
2022-12-11T02:42:48.913Z,985.93
2022-12-11T02:43:50.665Z,985.93
2022-12-11T02:44:52.357Z,985.94
2022-12-11T02:45:54.232Z,985.95
2022-12-11T02:46:55.834Z,985.91
2022-12-11T02:47:57.592Z,985.87
2022-12-11T02:48:59.302Z,985.89
2022-12-11T02:50:01.063Z,985.94
2022-12-11T02:51:02.786Z,985.81
2022-12-11T02:52:04.542Z,985.8
2022-12-11T02:53:06.253Z,985.82
2022-12-11T02:54:07.997Z,985.84
2022-12-11T02:55:10.016Z,985.77
2022-12-11T02:56:11.424Z,985.81
2022-12-11T02:57:13.203Z,985.79
2022-12-11T02:58:14.928Z,985.73
2022-12-11T02:59:16.629Z,985.8
2022-12-11T03:00:18.344Z,985.78
2022-12-11T03:01:20.120Z,985.8
2022-12-11T03:02:21.869Z,985.79
2022-12-11T03:03:23.576Z,985.82
2022-12-11T03:04:25.291Z,985.87
2022-12-11T03:05:27.017Z,985.73
2022-12-11T03:06:28.739Z,985.78
2022-12-11T03:07:30.462Z,985.74
2022-12-11T03:08:32.224Z,985.83
2022-12-11T03:09:33.948Z,985.83
2022-12-11T03:10:35.642Z,985.79
2022-12-11T03:11:37.391Z,985.85
2022-12-11T03:12:39.119Z,985.79
2022-12-11T03:13:40.851Z,985.86
2022-12-11T03:14:42.577Z,985.87
2022-12-11T03:15:44.317Z,985.82
2022-12-11T03:16:46.104Z,985.88
2022-12-11T03:17:47.798Z,985.82
2022-12-11T03:18:49.530Z,985.87
2022-12-11T03:19:51.241Z,985.95
2022-12-11T03:20:52.987Z,985.89
2022-12-11T03:21:54.714Z,985.8
2022-12-11T03:22:56.481Z,985.85
2022-12-11T03:23:58.211Z,985.9
2022-12-11T03:24:59.921Z,985.86
2022-12-11T03:26:01.668Z,985.84
2022-12-11T03:27:05.659Z,985.9
2022-12-11T03:28:05.112Z,985.88
2022-12-11T03:29:06.852Z,985.88
2022-12-11T03:30:08.625Z,985.84
2022-12-11T03:31:10.370Z,985.89
2022-12-11T03:32:12.084Z,985.87
2022-12-11T03:33:13.802Z,985.89
2022-12-11T03:34:15.523Z,985.88
2022-12-11T03:35:17.299Z,985.9
2022-12-11T03:36:19.089Z,985.91
2022-12-11T03:37:20.723Z,985.9
2022-12-11T03:38:22.501Z,985.88
2022-12-11T03:39:24.214Z,985.87
2022-12-11T03:40:25.916Z,985.86
2022-12-11T03:41:27.678Z,985.86
2022-12-11T03:42:29.396Z,985.85
2022-12-11T03:43:31.146Z,985.89
2022-12-11T03:44:32.873Z,985.82
2022-12-11T03:45:34.612Z,985.97
2022-12-11T03:46:36.384Z,985.92
2022-12-11T03:47:38.072Z,985.99
2022-12-11T03:48:39.804Z,985.96
2022-12-11T03:49:41.518Z,985.98
2022-12-11T03:50:43.268Z,985.9
2022-12-11T03:51:44.991Z,985.94
2022-12-11T03:52:46.733Z,985.94
2022-12-11T03:53:48.463Z,985.98
2022-12-11T03:54:50.183Z,986.03
2022-12-11T03:55:51.921Z,986.01
2022-12-11T03:56:53.656Z,985.96
2022-12-11T03:57:55.380Z,985.99
2022-12-11T03:58:57.118Z,985.98
2022-12-11T03:59:58.854Z,985.99
2022-12-11T04:01:00.582Z,985.9
2022-12-11T04:02:02.381Z,985.86
2022-12-11T04:03:08.202Z,985.85
2022-12-11T04:04:05.800Z,985.88
2022-12-11T04:05:07.794Z,985.85
2022-12-11T04:06:09.249Z,985.86
2022-12-11T04:07:10.980Z,985.92
2022-12-11T04:08:12.787Z,985.83
2022-12-11T04:09:14.451Z,985.85
2022-12-11T04:10:16.188Z,985.82
2022-12-11T04:11:17.913Z,985.89
2022-12-11T04:12:19.648Z,985.84
2022-12-11T04:13:21.398Z,985.83
2022-12-11T04:14:23.114Z,985.8
2022-12-11T04:15:24.882Z,985.82
2022-12-11T04:16:26.575Z,985.84
2022-12-11T04:17:28.323Z,985.79
2022-12-11T04:18:30.037Z,985.78
2022-12-11T04:19:31.816Z,985.8
2022-12-11T04:20:33.521Z,985.83
2022-12-11T04:21:39.422Z,985.82
2022-12-11T04:22:37.000Z,985.81
2022-12-11T04:23:38.720Z,985.76
2022-12-11T04:24:40.443Z,985.76
2022-12-11T04:25:42.193Z,985.72
2022-12-11T04:26:43.912Z,985.75
2022-12-11T04:27:45.640Z,985.78
2022-12-11T04:28:47.392Z,985.81
2022-12-11T04:29:49.121Z,985.81
2022-12-11T04:30:50.917Z,985.75
2022-12-11T04:31:52.588Z,985.81
2022-12-11T04:32:54.327Z,985.74
2022-12-11T04:33:56.053Z,985.79
2022-12-11T04:34:57.780Z,985.73
2022-12-11T04:35:59.528Z,985.77
2022-12-11T04:37:01.246Z,985.8
2022-12-11T04:38:02.979Z,985.75
2022-12-11T04:39:04.719Z,985.78
2022-12-11T04:40:06.485Z,985.75
2022-12-11T04:41:08.184Z,985.79
2022-12-11T04:42:09.941Z,985.8
2022-12-11T04:43:11.657Z,985.75
2022-12-11T04:44:13.383Z,985.79
2022-12-11T04:45:15.119Z,985.76
2022-12-11T04:46:16.926Z,985.79
2022-12-11T04:47:18.586Z,985.77
2022-12-11T04:48:20.325Z,985.75
2022-12-11T04:49:22.063Z,985.75
2022-12-11T04:50:23.803Z,985.71
2022-12-11T04:51:25.524Z,985.77
2022-12-11T04:52:27.252Z,985.76
2022-12-11T04:53:28.986Z,985.75
2022-12-11T04:54:30.593Z,985.75
2022-12-11T04:55:32.314Z,985.74
2022-12-11T04:56:34.080Z,985.71
2022-12-11T04:57:35.835Z,985.71
2022-12-11T04:58:37.544Z,985.71
2022-12-11T04:59:39.261Z,985.68
2022-12-11T05:00:41.029Z,985.77
2022-12-11T05:01:42.792Z,985.71
2022-12-11T05:02:44.489Z,985.77
2022-12-11T05:03:46.192Z,985.73
2022-12-11T05:04:47.938Z,985.8
2022-12-11T05:05:49.658Z,985.76
2022-12-11T05:06:51.398Z,985.82
2022-12-11T05:07:53.217Z,985.78
2022-12-11T05:08:54.885Z,985.79
2022-12-11T05:09:56.589Z,985.77
2022-12-11T05:10:58.382Z,985.81
2022-12-11T05:12:00.048Z,985.71
2022-12-11T05:13:01.835Z,985.78
2022-12-11T05:14:03.552Z,985.74
2022-12-11T05:15:05.286Z,985.74
2022-12-11T05:16:07.038Z,985.71
2022-12-11T05:17:08.741Z,985.75
2022-12-11T05:18:10.455Z,985.74
2022-12-11T05:19:12.264Z,985.79
2022-12-11T05:20:13.926Z,985.67
2022-12-11T05:21:15.675Z,985.71
2022-12-11T05:22:17.416Z,985.59
2022-12-11T05:23:19.148Z,985.68
2022-12-11T05:24:20.912Z,985.66
2022-12-11T05:25:22.636Z,985.66
2022-12-11T05:26:24.366Z,985.68
2022-12-11T05:27:26.077Z,985.65
2022-12-11T05:28:27.808Z,985.76
2022-12-11T05:29:29.528Z,985.67
2022-12-11T05:30:31.264Z,985.63
2022-12-11T05:31:33.053Z,985.66
2022-12-11T05:32:34.785Z,985.65
2022-12-11T05:33:36.483Z,985.61
2022-12-11T05:34:38.271Z,985.65
2022-12-11T05:35:39.929Z,985.59
2022-12-11T05:36:41.715Z,985.56
2022-12-11T05:37:43.398Z,985.6
2022-12-11T05:38:45.134Z,985.59
2022-12-11T05:39:46.874Z,985.57
2022-12-11T05:40:48.596Z,985.45
2022-12-11T05:41:50.344Z,985.54
2022-12-11T05:42:52.126Z,985.49
2022-12-11T05:43:53.845Z,985.5
2022-12-11T05:44:55.548Z,985.46
2022-12-11T05:45:57.267Z,985.42
2022-12-11T05:46:59.130Z,985.38
2022-12-11T05:48:00.750Z,985.42
2022-12-11T05:49:02.488Z,985.34
2022-12-11T05:50:04.220Z,985.37
2022-12-11T05:51:05.932Z,985.41
2022-12-11T05:52:07.685Z,985.38
2022-12-11T05:53:09.438Z,985.29
2022-12-11T05:54:11.149Z,985.34
2022-12-11T05:55:13.320Z,985.34
2022-12-11T05:56:14.603Z,985.37
2022-12-11T05:57:16.337Z,985.36
2022-12-11T05:58:18.075Z,985.42
2022-12-11T05:59:19.853Z,985.44
2022-12-11T06:00:21.594Z,985.38
2022-12-11T06:01:23.280Z,985.42
2022-12-11T06:02:25.218Z,985.37
2022-12-11T06:03:26.743Z,985.37
2022-12-11T06:04:28.475Z,985.29
2022-12-11T06:05:30.207Z,985.39
2022-12-11T06:06:31.947Z,985.35
2022-12-11T06:07:33.719Z,985.42
2022-12-11T06:08:35.431Z,985.45
2022-12-11T06:09:37.182Z,985.35
2022-12-11T06:10:38.876Z,985.45
2022-12-11T06:11:40.656Z,985.37
2022-12-11T06:12:42.380Z,985.45
2022-12-11T06:13:44.084Z,985.44
2022-12-11T06:14:45.806Z,985.41
2022-12-11T06:15:47.546Z,985.41
2022-12-11T06:16:49.343Z,985.45
2022-12-11T06:17:51.022Z,985.49
2022-12-11T06:18:55.795Z,985.41
2022-12-11T06:19:54.526Z,985.43
2022-12-11T06:20:56.252Z,985.41
2022-12-11T06:21:57.981Z,985.48
2022-12-11T06:23:00.742Z,985.46
2022-12-11T06:24:01.404Z,985.46
2022-12-11T06:25:03.165Z,985.45
2022-12-11T06:26:04.912Z,985.46
2022-12-11T06:27:06.643Z,985.43
2022-12-11T06:28:08.390Z,985.45
2022-12-11T06:29:12.996Z,985.46
2022-12-11T06:30:11.849Z,985.42
2022-12-11T06:31:13.564Z,985.5
2022-12-11T06:32:15.288Z,985.4
2022-12-11T06:33:17.023Z,985.48
2022-12-11T06:34:18.795Z,985.48
2022-12-11T06:35:20.524Z,985.47
2022-12-11T06:36:22.213Z,985.48
2022-12-11T06:37:23.955Z,985.49
2022-12-11T06:38:25.687Z,985.48
2022-12-11T06:39:27.449Z,985.42
2022-12-11T06:40:29.156Z,985.47
2022-12-11T06:41:30.896Z,985.41
2022-12-11T06:42:32.641Z,985.43
2022-12-11T06:43:34.362Z,985.43
2022-12-11T06:44:36.086Z,985.4
2022-12-11T06:45:37.876Z,985.35
2022-12-11T06:46:39.603Z,985.3
2022-12-11T06:47:41.302Z,985.34
2022-12-11T06:48:43.028Z,985.31
2022-12-11T06:49:44.779Z,985.28
2022-12-11T06:50:46.492Z,985.29
2022-12-11T06:51:48.229Z,985.31
2022-12-11T06:52:49.968Z,985.29
2022-12-11T06:53:51.686Z,985.18
2022-12-11T06:54:53.434Z,985.2
2022-12-11T06:55:55.213Z,985.33
2022-12-11T06:56:56.908Z,985.28
2022-12-11T06:57:58.672Z,985.27
2022-12-11T06:59:05.727Z,985.31
2022-12-11T07:00:02.097Z,985.23
2022-12-11T07:01:03.898Z,985.23
2022-12-11T07:02:05.707Z,985.28
2022-12-11T07:03:07.310Z,985.25
2022-12-11T07:04:09.028Z,985.31
2022-12-11T07:05:11.046Z,985.33
2022-12-11T07:06:12.483Z,985.23
2022-12-11T07:07:14.237Z,985.27
2022-12-11T07:08:15.975Z,985.26
2022-12-11T07:09:17.689Z,985.22
2022-12-11T07:10:19.373Z,985.22
2022-12-11T07:11:21.095Z,985.3
2022-12-11T07:12:22.881Z,985.28
2022-12-11T07:13:24.597Z,985.31
2022-12-11T07:14:26.311Z,985.34
2022-12-11T07:15:28.080Z,985.33
2022-12-11T07:16:29.835Z,985.35
2022-12-11T07:17:31.500Z,985.36
2022-12-11T07:18:33.382Z,985.31
2022-12-11T07:19:35.034Z,985.38
2022-12-11T07:20:36.711Z,985.37
2022-12-11T07:21:38.501Z,985.32
2022-12-11T07:22:46.003Z,985.35
2022-12-11T07:23:41.958Z,985.37
2022-12-11T07:24:43.656Z,985.43
2022-12-11T07:25:45.377Z,985.4
2022-12-11T07:26:47.166Z,985.39
2022-12-11T07:27:48.848Z,985.37
2022-12-11T07:28:50.625Z,985.43
2022-12-11T07:29:52.359Z,985.33
2022-12-11T07:30:54.037Z,985.36
2022-12-11T07:31:55.974Z,985.35
2022-12-11T07:32:57.575Z,985.42
2022-12-11T07:33:59.282Z,985.46
2022-12-11T07:35:01.025Z,985.4
2022-12-11T07:36:02.744Z,985.51
2022-12-11T07:37:04.534Z,985.45
2022-12-11T07:38:06.195Z,985.38
2022-12-11T07:39:07.916Z,985.45
2022-12-11T07:40:09.708Z,985.46
2022-12-11T07:41:11.477Z,985.44
2022-12-11T07:42:13.177Z,985.52
2022-12-11T07:43:14.945Z,985.46
2022-12-11T07:44:16.633Z,985.52
2022-12-11T07:45:18.395Z,985.48
2022-12-11T07:46:20.158Z,985.51
2022-12-11T07:47:21.828Z,985.55
2022-12-11T07:48:23.593Z,985.53
2022-12-11T07:49:25.357Z,985.47
2022-12-11T07:50:27.139Z,985.49
2022-12-11T07:51:28.806Z,985.57
2022-12-11T07:52:30.507Z,985.43
2022-12-11T07:53:32.240Z,985.52
2022-12-11T07:55:22.980Z,985.49
2022-12-11T07:56:24.751Z,985.43
2022-12-11T07:57:26.483Z,985.47
2022-12-11T07:58:52.694Z,985.53
2022-12-11T07:59:54.443Z,985.52
2022-12-11T08:00:56.236Z,985.52
2022-12-11T08:01:57.980Z,985.56
2022-12-11T08:02:59.644Z,985.56
2022-12-11T08:04:01.388Z,985.48
2022-12-11T08:07:29.500Z,985.52
2022-12-11T08:08:31.228Z,985.57
2022-12-11T08:09:33.032Z,985.57
2022-12-11T08:10:34.724Z,985.61
2022-12-11T08:11:36.432Z,985.6
2022-12-11T08:12:38.154Z,985.61
2022-12-11T08:13:39.891Z,985.64
2022-12-11T08:14:41.672Z,985.58
2022-12-11T08:15:43.357Z,985.63
2022-12-11T08:16:45.182Z,985.64
2022-12-11T08:17:46.870Z,985.68
2022-12-11T08:18:48.593Z,985.65
2022-12-11T08:19:50.276Z,985.62
2022-12-11T08:20:52.035Z,985.65
2022-12-11T08:21:53.758Z,985.63
2022-12-11T08:22:58.996Z,985.63
2022-12-11T08:23:57.238Z,985.61
2022-12-11T08:24:58.958Z,985.57
2022-12-11T08:26:00.694Z,985.62
2022-12-11T08:27:02.484Z,985.62
2022-12-11T08:28:04.154Z,985.62
2022-12-11T08:29:05.910Z,985.63
2022-12-11T08:30:07.711Z,985.68
2022-12-11T08:31:09.488Z,985.69
2022-12-11T08:32:12.612Z,985.67
2022-12-11T08:33:12.858Z,985.76
2022-12-11T08:34:14.546Z,985.69
2022-12-11T08:35:16.286Z,985.7
2022-12-11T08:36:18.021Z,985.65
2022-12-11T08:37:19.753Z,985.73
2022-12-11T08:38:25.323Z,985.66
2022-12-11T08:39:23.226Z,985.64
2022-12-11T08:40:24.954Z,985.66
2022-12-11T08:41:26.701Z,985.65
2022-12-11T08:42:28.440Z,985.59
2022-12-11T08:43:30.184Z,985.58
2022-12-11T08:44:31.894Z,985.59
2022-12-11T08:45:33.635Z,985.57
2022-12-11T08:46:35.431Z,985.58
2022-12-11T08:47:37.087Z,985.57
2022-12-11T08:48:38.829Z,985.58
2022-12-11T08:49:40.560Z,985.61
2022-12-11T08:50:42.287Z,985.51
2022-12-11T08:51:44.025Z,985.6
2022-12-11T08:52:45.754Z,985.58
2022-12-11T08:53:47.486Z,985.58
2022-12-11T08:54:49.224Z,985.58
2022-12-11T08:55:50.955Z,985.59
2022-12-11T08:56:57.814Z,985.6
2022-12-11T08:57:54.431Z,985.56
2022-12-11T08:58:56.171Z,985.62
2022-12-11T08:59:57.891Z,985.59
2022-12-11T09:00:59.687Z,985.57
2022-12-11T09:02:01.397Z,985.56
2022-12-11T09:03:04.589Z,985.53
2022-12-11T09:04:04.874Z,985.49
2022-12-11T09:05:06.570Z,985.51
2022-12-11T09:06:08.284Z,985.5
2022-12-11T09:07:10.026Z,985.5
2022-12-11T09:08:11.865Z,985.51
2022-12-11T09:09:13.521Z,985.43
2022-12-11T09:10:15.314Z,985.45
2022-12-11T09:11:17.031Z,985.41
2022-12-11T09:12:18.790Z,985.44
2022-12-11T09:13:20.490Z,985.46
2022-12-11T09:14:22.227Z,985.45
2022-12-11T09:15:23.945Z,985.43
2022-12-11T09:16:25.652Z,985.45
2022-12-11T09:17:27.412Z,985.42
2022-12-11T09:18:29.125Z,985.43
2022-12-11T09:19:32.579Z,985.48
2022-12-11T09:20:32.609Z,985.43
2022-12-11T09:21:34.331Z,985.34
2022-12-11T09:22:36.050Z,985.43
2022-12-11T09:23:37.791Z,985.4
2022-12-11T09:24:39.512Z,985.42
2022-12-11T09:25:41.245Z,985.42
2022-12-11T09:26:44.348Z,985.47
2022-12-11T09:27:44.718Z,985.44
2022-12-11T09:28:47.296Z,985.36
2022-12-11T09:29:48.176Z,985.4
2022-12-11T09:30:50.024Z,985.34
2022-12-11T09:31:51.645Z,985.48
2022-12-11T09:32:53.416Z,985.43
2022-12-11T09:33:55.119Z,985.43
2022-12-11T09:34:56.855Z,985.5
2022-12-11T09:35:58.796Z,985.44
2022-12-11T09:37:00.311Z,985.44
2022-12-11T09:38:02.143Z,985.42
2022-12-11T09:39:03.831Z,985.53
2022-12-11T09:40:07.833Z,985.52
2022-12-11T09:41:07.249Z,985.47
2022-12-11T09:42:08.979Z,985.51
2022-12-11T09:43:10.749Z,985.55
2022-12-11T09:44:12.486Z,985.49
2022-12-11T09:45:14.175Z,985.52
2022-12-11T09:46:15.996Z,985.54
2022-12-11T09:47:17.658Z,985.44
2022-12-11T09:48:19.403Z,985.46
2022-12-11T09:49:21.157Z,985.44
2022-12-11T09:50:22.913Z,985.43
2022-12-11T09:51:24.597Z,985.43
2022-12-11T09:52:26.451Z,985.45
2022-12-11T09:53:33.784Z,985.44
2022-12-11T09:54:29.868Z,985.39
2022-12-11T09:55:31.498Z,985.28
2022-12-11T09:56:33.249Z,985.41
2022-12-11T09:57:35.018Z,985.36
2022-12-11T09:58:36.748Z,985.34
2022-12-11T09:59:38.441Z,985.32
2022-12-11T10:00:40.220Z,985.24
2022-12-11T10:01:41.997Z,985.27
2022-12-11T10:02:43.698Z,985.21
2022-12-11T10:03:45.407Z,985.26
2022-12-11T10:04:47.118Z,985.26
2022-12-11T10:05:48.854Z,985.24
2022-12-11T10:06:50.572Z,985.3
2022-12-11T10:07:52.410Z,985.22
2022-12-11T10:08:54.042Z,985.26
2022-12-11T10:09:55.811Z,985.26
2022-12-11T10:10:57.561Z,985.27
2022-12-11T10:11:59.316Z,985.28
2022-12-11T10:13:01.051Z,985.26
2022-12-11T10:14:02.898Z,985.23
2022-12-11T10:15:04.469Z,985.24
2022-12-11T10:16:06.296Z,985.19
2022-12-11T10:17:07.909Z,985.22
2022-12-11T10:18:08.951Z,985.2
2022-12-11T10:19:11.339Z,985.23
2022-12-11T10:20:13.067Z,985.24
2022-12-11T10:21:14.850Z,985.18
2022-12-11T10:22:16.529Z,985.23
2022-12-11T10:23:18.283Z,985.25
2022-12-11T10:24:50.142Z,985.21
2022-12-11T10:25:21.744Z,985.17
2022-12-11T10:26:28.044Z,985.16
2022-12-11T10:27:30.408Z,985.27
2022-12-11T10:28:32.179Z,985.21
2022-12-11T10:29:33.908Z,985.29
2022-12-11T10:30:35.658Z,985.29
2022-12-11T10:31:37.425Z,985.27
2022-12-11T10:32:40.462Z,985.24
2022-12-11T10:33:51.217Z,985.28
2022-12-11T10:34:52.768Z,985.32
2022-12-11T10:35:54.534Z,985.24
2022-12-11T10:37:00.427Z,985.3
2022-12-11T10:37:58.002Z,985.24
2022-12-11T10:38:59.726Z,985.23
2022-12-11T10:40:01.486Z,985.21
2022-12-11T10:41:04.494Z,985.23
2022-12-11T10:42:04.933Z,985.2
2022-12-11T10:43:06.701Z,985.18
2022-12-11T10:44:08.428Z,985.12
2022-12-11T10:45:10.567Z,985.11
2022-12-11T10:46:11.945Z,985.15
2022-12-11T10:47:13.626Z,985.12
2022-12-11T10:48:15.339Z,985.07
2022-12-11T10:49:17.111Z,985.05
2022-12-11T10:50:18.834Z,985.09
2022-12-11T10:51:20.565Z,985.05
2022-12-11T10:52:22.306Z,985.06
2022-12-11T10:53:24.003Z,985.04
2022-12-11T10:54:26.016Z,984.99
2022-12-11T10:55:27.498Z,984.96
2022-12-11T10:56:29.220Z,984.96
2022-12-11T10:57:29.967Z,984.9
2022-12-11T10:58:32.740Z,984.95
2022-12-11T10:59:34.419Z,984.94
2022-12-11T11:00:36.159Z,984.89
2022-12-11T11:01:38.009Z,984.93
2022-12-11T11:02:39.718Z,984.9
2022-12-11T11:03:41.382Z,984.85
2022-12-11T11:04:47.501Z,984.86
2022-12-11T11:05:49.968Z,984.87
2022-12-11T11:06:53.068Z,984.83
2022-12-11T11:07:53.475Z,984.82
2022-12-11T11:08:55.172Z,984.85
2022-12-11T11:09:56.889Z,984.79
2022-12-11T11:10:58.606Z,984.78
2022-12-11T11:12:05.987Z,984.81
2022-12-11T11:13:02.144Z,984.82
2022-12-11T11:14:03.733Z,984.8
2022-12-11T11:15:05.568Z,984.79
2022-12-11T11:16:07.286Z,984.8
2022-12-11T11:17:08.993Z,984.84
2022-12-11T11:18:10.763Z,984.83
2022-12-11T11:19:12.453Z,984.87
2022-12-11T11:20:14.206Z,984.81
2022-12-11T11:21:16.960Z,984.84
2022-12-11T11:22:17.666Z,984.86
2022-12-11T11:23:19.406Z,984.83
2022-12-11T11:24:21.133Z,984.83
2022-12-11T11:25:22.984Z,984.8
2022-12-11T11:26:30.768Z,984.86
2022-12-11T11:27:26.306Z,984.79
2022-12-11T11:28:28.040Z,984.73
2022-12-11T11:29:29.789Z,984.77
2022-12-11T11:30:31.514Z,984.83
2022-12-11T11:31:33.298Z,984.76
2022-12-11T11:32:34.984Z,984.86
2022-12-11T11:33:36.716Z,984.73
2022-12-11T11:34:38.442Z,984.78
2022-12-11T11:35:44.234Z,984.79
2022-12-11T11:36:41.887Z,984.81
2022-12-11T11:37:43.595Z,984.68
2022-12-11T11:38:45.327Z,984.75
2022-12-11T11:39:47.071Z,984.75
2022-12-11T11:40:48.796Z,984.7
2022-12-11T11:41:50.537Z,984.69
2022-12-11T11:42:52.276Z,984.63
2022-12-11T11:43:54.008Z,984.69
2022-12-11T11:44:55.722Z,984.73
2022-12-11T11:45:57.498Z,984.6
2022-12-11T11:46:59.278Z,984.6
2022-12-11T11:48:03.076Z,984.59
2022-12-11T11:49:02.723Z,984.57
2022-12-11T11:50:04.379Z,984.54
2022-12-11T11:51:06.138Z,984.6
2022-12-11T11:52:07.857Z,984.52
2022-12-11T11:53:09.588Z,984.56
2022-12-11T11:54:11.324Z,984.51
2022-12-11T11:55:16.193Z,984.56
2022-12-11T11:56:14.807Z,984.51
2022-12-11T11:57:16.566Z,984.55
2022-12-11T11:58:18.302Z,984.51
2022-12-11T11:59:20.032Z,984.53
2022-12-11T12:00:21.860Z,984.54
2022-12-11T12:01:23.464Z,984.54
2022-12-11T12:02:25.304Z,984.47
2022-12-11T12:03:26.933Z,984.51
2022-12-11T12:04:28.675Z,984.5
2022-12-11T12:05:30.404Z,984.54
2022-12-11T12:06:32.128Z,984.49
2022-12-11T12:07:33.846Z,984.57
2022-12-11T12:08:35.595Z,984.56
2022-12-11T12:09:37.331Z,984.55
2022-12-11T12:10:39.111Z,984.55
2022-12-11T12:11:40.789Z,984.52
2022-12-11T12:12:42.526Z,984.47
2022-12-11T12:13:49.527Z,984.5
2022-12-11T12:14:52.463Z,984.54
2022-12-11T12:15:47.724Z,984.51
2022-12-11T12:16:53.481Z,984.54
2022-12-11T12:17:55.350Z,984.53
2022-12-11T12:18:52.914Z,984.49
2022-12-11T12:19:54.655Z,984.59
2022-12-11T12:20:56.382Z,984.5
2022-12-11T12:21:58.125Z,984.52
2022-12-11T12:22:59.854Z,984.56
2022-12-11T12:24:01.582Z,984.56
2022-12-11T12:25:03.317Z,984.51
2022-12-11T12:26:05.061Z,984.46
2022-12-11T12:27:22.911Z,984.46
2022-12-11T12:28:09.864Z,984.38
2022-12-11T12:29:10.349Z,984.44
2022-12-11T12:30:15.050Z,984.41
2022-12-11T12:31:13.779Z,984.42
2022-12-11T12:32:15.463Z,984.4
2022-12-11T12:33:17.198Z,984.42
2022-12-11T12:34:18.935Z,984.39
2022-12-11T12:35:20.644Z,984.42
2022-12-11T12:36:22.397Z,984.35
2022-12-11T12:37:24.217Z,984.35
2022-12-11T12:38:25.865Z,984.42
2022-12-11T12:39:27.598Z,984.43
2022-12-11T12:40:29.322Z,984.42
2022-12-11T12:41:31.042Z,984.46
2022-12-11T12:42:32.777Z,984.44
2022-12-11T12:43:34.526Z,984.43
2022-12-11T12:44:36.260Z,984.45
2022-12-11T12:45:38.040Z,984.44
2022-12-11T12:46:39.722Z,984.48
2022-12-11T12:47:41.540Z,984.4
2022-12-11T12:48:43.187Z,984.46
2022-12-11T12:49:44.958Z,984.39
2022-12-11T12:50:46.656Z,984.35
2022-12-11T12:51:48.378Z,984.47
2022-12-11T12:52:50.123Z,984.46
2022-12-11T12:53:51.844Z,984.44
2022-12-11T12:54:53.577Z,984.42
2022-12-11T12:55:55.316Z,984.42